Time;durP1;ratioP1;P1;durP2;ratioP2;P2;SDS_P1;SDS_P2;PMS_P1;PMS_P2;Temp;Humidity;BMP_temperature;BMP_pressure;BME280_temperature;BME280_humidity;BME280_pressure;Samples;Min_cycle;Max_cycle;Signal;HPM_P1;HPM_P2
2023/08/07 00:00:45;;;;;;;7.95;3.92;;;15.90;99.90;;;;;;5010650;28;20041;-57
2023/08/07 00:03:31;;;;;;;5.70;3.80;;;16.00;99.90;;;;;;5014111;28;20033;-57
2023/08/07 00:06:17;;;;;;;4.60;3.60;;;16.00;99.90;;;;;;5030847;28;20108;-55
2023/08/07 00:09:02;;;;;;;4.72;3.60;;;16.00;99.90;;;;;;5030380;28;20406;-54
2023/08/07 00:11:49;;;;;;;4.00;3.60;;;16.10;99.90;;;;;;5030412;28;20033;-54
2023/08/07 00:14:35;;;;;;;5.30;3.92;;;16.00;99.90;;;;;;5010823;28;20038;-52
2023/08/07 00:17:20;;;;;;;4.03;3.60;;;16.10;99.90;;;;;;5010160;28;20029;-55
2023/08/07 00:20:07;;;;;;;3.72;3.42;;;16.20;99.90;;;;;;5009801;28;20033;-59
2023/08/07 00:22:53;;;;;;;4.18;3.78;;;16.20;99.90;;;;;;5009878;28;20085;-57
2023/08/07 00:25:39;;;;;;;3.78;3.38;;;16.30;99.90;;;;;;5009718;28;20032;-54
2023/08/07 00:28:25;;;;;;;3.60;3.30;;;16.20;99.90;;;;;;5009441;28;20084;-55
2023/08/07 00:31:12;;;;;;;3.72;3.33;;;16.10;99.90;;;;;;5009198;28;20022;-58
2023/08/07 00:33:59;;;;;;;4.80;3.55;;;16.10;99.90;;;;;;5029544;28;20037;-53
2023/08/07 00:36:45;;;;;;;4.03;3.63;;;16.20;99.90;;;;;;5029920;28;20025;-59
2023/08/07 00:39:31;;;;;;;4.43;3.90;;;16.10;99.90;;;;;;5029926;28;20038;-58
2023/08/07 00:42:16;;;;;;;5.43;3.95;;;16.10;99.90;;;;;;5029974;28;20049;-58
2023/08/07 00:45:03;;;;;;;6.63;4.32;;;16.00;99.90;;;;;;5029404;28;20034;-59
2023/08/07 00:47:49;;;;;;;5.07;4.57;;;16.00;99.90;;;;;;4977691;28;20034;-59
2023/08/07 00:50:36;;;;;;;6.05;5.10;;;16.10;99.90;;;;;;4990929;28;20460;-59
2023/08/07 00:53:22;;;;;;;7.95;6.00;;;16.00;99.90;;;;;;4976538;28;20047;-53
2023/08/07 00:56:08;;;;;;;6.50;5.55;;;15.90;99.90;;;;;;4990675;28;20090;-55
2023/08/07 00:58:54;;;;;;;8.60;6.72;;;15.80;99.90;;;;;;4990469;28;20030;-59
2023/08/07 01:01:40;;;;;;;10.27;7.38;;;15.90;99.90;;;;;;5009640;28;20661;-58
2023/08/07 01:04:26;;;;;;;7.85;7.13;;;15.90;99.90;;;;;;5009364;28;20042;-58
2023/08/07 01:07:12;;;;;;;9.55;6.85;;;15.90;99.90;;;;;;5009697;28;20613;-56
2023/08/07 01:10:02;;;;;;;9.45;7.32;;;15.90;99.90;;;;;;5008264;28;20029;-58
2023/08/07 01:12:58;;;;;;;8.93;7.63;;;15.90;99.90;;;;;;5009636;28;20018;-56
2023/08/07 01:15:46;;;;;;;10.52;7.53;;;15.90;99.90;;;;;;5009722;28;20037;-55
2023/08/07 01:18:33;;;;;;;8.85;8.05;;;15.90;99.90;;;;;;5010635;28;20026;-54
2023/08/07 01:21:21;;;;;;;8.98;8.10;;;16.00;99.90;;;;;;5009598;28;20117;-58
2023/08/07 01:24:07;;;;;;;9.43;8.40;;;16.00;99.90;;;;;;4995767;28;20026;-56
2023/08/07 01:26:55;;;;;;;7.05;6.35;;;15.90;99.90;;;;;;5009530;28;20140;-57
2023/08/07 01:29:54;;;;;;;7.88;5.32;;;15.90;99.90;;;;;;4990966;28;20118;-58
2023/08/07 01:32:55;;;;;;;5.97;4.57;;;15.90;99.90;;;;;;4990737;28;20088;-56
2023/08/07 01:35:45;;;;;;;7.30;4.80;;;16.00;99.90;;;;;;5012486;28;20049;-59
2023/08/07 01:38:32;;;;;;;4.88;4.07;;;15.90;99.90;;;;;;5011541;28;20022;-54
2023/08/07 01:41:18;;;;;;;6.72;4.15;;;15.90;99.90;;;;;;5014920;28;20018;-57
2023/08/07 01:44:05;;;;;;;6.82;4.22;;;15.90;99.90;;;;;;5012854;28;20109;-57
2023/08/07 01:46:51;;;;;;;5.20;3.83;;;15.80;99.90;;;;;;5012775;28;20419;-58
2023/08/07 01:49:38;;;;;;;4.43;3.70;;;15.70;99.90;;;;;;5012793;28;20383;-58
2023/08/07 01:52:24;;;;;;;4.28;3.88;;;15.80;99.90;;;;;;4999231;28;20050;-58
2023/08/07 01:55:10;;;;;;;5.47;4.35;;;15.70;99.90;;;;;;5000656;28;20026;-58
2023/08/07 01:57:56;;;;;;;4.40;4.00;;;15.60;99.90;;;;;;5032808;28;20072;-58
2023/08/07 02:00:42;;;;;;;4.90;4.40;;;15.60;99.90;;;;;;5032289;28;20022;-57
2023/08/07 02:03:28;;;;;;;5.53;4.75;;;15.60;99.90;;;;;;5033088;28;20060;-56
2023/08/07 02:06:14;;;;;;;7.00;4.47;;;15.60;99.90;;;;;;5032132;28;20036;-58
2023/08/07 02:09:00;;;;;;;6.70;4.75;;;15.60;99.90;;;;;;5031816;28;20032;-56
2023/08/07 02:11:46;;;;;;;5.00;4.20;;;15.60;99.90;;;;;;5032775;28;20030;-56
2023/08/07 02:14:31;;;;;;;7.10;4.55;;;15.60;99.90;;;;;;5033049;28;20041;-58
2023/08/07 02:17:17;;;;;;;5.43;4.25;;;15.60;99.90;;;;;;5032563;28;20086;-58
2023/08/07 02:20:04;;;;;;;7.10;4.38;;;15.50;99.90;;;;;;5017999;28;20033;-56
2023/08/07 02:22:50;;;;;;;5.72;4.25;;;15.50;99.90;;;;;;5015581;28;20092;-57
2023/08/07 02:25:36;;;;;;;4.60;4.20;;;15.50;99.90;;;;;;4993679;28;20029;-54
2023/08/07 02:28:22;;;;;;;6.15;4.80;;;15.40;99.90;;;;;;5002494;28;20117;-56
2023/08/07 02:31:08;;;;;;;7.50;4.80;;;15.50;99.90;;;;;;5012145;28;20475;-57
2023/08/07 02:33:54;;;;;;;5.47;4.80;;;15.50;99.90;;;;;;4999049;28;20121;-52
2023/08/07 02:36:40;;;;;;;6.22;4.60;;;15.40;99.90;;;;;;4998030;28;20026;-58
2023/08/07 02:39:25;;;;;;;5.63;4.68;;;15.50;99.90;;;;;;5011122;28;20104;-58
2023/08/07 02:42:11;;;;;;;6.93;4.65;;;15.50;99.90;;;;;;5012857;28;20068;-58
2023/08/07 02:44:57;;;;;;;5.07;4.40;;;15.50;99.90;;;;;;5032054;28;20029;-58
2023/08/07 02:47:43;;;;;;;6.82;4.60;;;15.40;99.90;;;;;;5016300;28;20080;-57
2023/08/07 02:50:32;;;;;;;6.25;5.03;;;15.50;99.90;;;;;;5018998;28;20026;-57
2023/08/07 02:53:18;;;;;;;9.00;4.68;;;15.50;99.90;;;;;;4997732;28;20112;-58
2023/08/07 02:56:04;;;;;;;6.45;5.10;;;15.30;99.90;;;;;;5010137;28;20034;-58
2023/08/07 02:58:50;;;;;;;7.05;5.15;;;15.30;99.90;;;;;;5011677;28;20026;-58
2023/08/07 03:01:36;;;;;;;8.57;5.07;;;15.20;99.90;;;;;;5011925;28;20034;-57
2023/08/07 03:04:22;;;;;;;5.45;4.93;;;15.30;99.90;;;;;;5011331;28;20173;-57
2023/08/07 03:07:08;;;;;;;8.52;5.25;;;15.30;99.90;;;;;;5011774;28;20030;-55
2023/08/07 03:09:53;;;;;;;8.27;4.80;;;15.30;99.90;;;;;;5011901;28;20026;-58
2023/08/07 03:12:39;;;;;;;6.40;4.68;;;15.40;99.90;;;;;;5012402;28;20057;-56
2023/08/07 03:15:25;;;;;;;5.45;4.93;;;15.40;99.90;;;;;;5012322;28;20040;-59
2023/08/07 03:18:11;;;;;;;6.03;4.75;;;15.30;99.90;;;;;;5010573;28;20528;-62
2023/08/07 03:20:57;;;;;;;5.80;4.50;;;15.50;99.90;;;;;;4992617;28;20121;-61
2023/08/07 03:23:43;;;;;;;7.07;4.43;;;15.30;99.90;;;;;;4992563;28;20030;-59
2023/08/07 03:26:29;;;;;;;6.03;4.55;;;15.20;99.90;;;;;;4992801;28;20739;-58
2023/08/07 03:29:15;;;;;;;5.03;4.40;;;15.20;99.90;;;;;;5007643;28;20116;-59
2023/08/07 03:32:01;;;;;;;4.97;4.30;;;15.20;99.90;;;;;;5012023;28;20026;-59
2023/08/07 03:34:47;;;;;;;8.10;4.32;;;15.20;99.90;;;;;;5011721;28;20487;-59
2023/08/07 03:37:33;;;;;;;6.15;4.60;;;15.20;99.90;;;;;;5012128;28;20101;-59
2023/08/07 03:40:19;;;;;;;6.40;5.13;;;15.10;99.90;;;;;;5011121;28;20030;-55
2023/08/07 03:43:05;;;;;;;8.30;5.05;;;15.10;99.90;;;;;;5011777;28;20030;-58
2023/08/07 03:45:55;;;;;;;7.38;5.75;;;15.10;99.90;;;;;;5011171;28;20026;-58
2023/08/07 03:48:41;;;;;;;5.93;5.32;;;15.10;99.90;;;;;;5016851;28;20076;-57
2023/08/07 03:51:29;;;;;;;6.50;5.68;;;15.10;99.90;;;;;;5032268;28;20109;-58
2023/08/07 03:54:15;;;;;;;7.20;6.13;;;15.00;99.90;;;;;;5030950;28;20033;-53
2023/08/07 03:57:01;;;;;;;6.80;5.97;;;15.10;99.90;;;;;;5031792;28;20060;-56
2023/08/07 03:59:47;;;;;;;7.22;6.28;;;15.10;99.90;;;;;;5030468;28;20029;-57
2023/08/07 04:02:33;;;;;;;8.55;6.20;;;15.00;99.90;;;;;;5030875;28;20045;-56
2023/08/07 04:05:19;;;;;;;7.30;5.57;;;15.00;99.90;;;;;;5031396;28;20037;-53
2023/08/07 04:08:05;;;;;;;5.63;4.72;;;14.90;99.90;;;;;;5029934;28;20026;-55
2023/08/07 04:11:02;;;;;;;6.03;4.93;;;15.10;99.90;;;;;;5030720;28;20055;-59
2023/08/07 04:13:47;;;;;;;7.47;4.57;;;15.10;99.90;;;;;;5019402;28;20030;-58
2023/08/07 04:16:33;;;;;;;6.00;4.47;;;15.10;99.90;;;;;;4997560;28;20067;-55
2023/08/07 04:19:19;;;;;;;6.18;3.97;;;15.10;99.90;;;;;;5011037;28;20125;-55
2023/08/07 04:22:05;;;;;;;5.82;4.10;;;15.10;99.90;;;;;;5010486;28;20033;-55
2023/08/07 04:24:51;;;;;;;4.75;3.65;;;15.00;99.90;;;;;;5009818;28;20022;-54
2023/08/07 04:27:38;;;;;;;6.07;3.67;;;15.10;99.90;;;;;;5009911;28;20022;-58
2023/08/07 04:30:24;;;;;;;4.25;3.15;;;15.10;99.90;;;;;;5009898;28;20037;-53
2023/08/07 04:33:10;;;;;;;3.88;3.13;;;15.10;99.90;;;;;;5010376;28;20069;-53
2023/08/07 04:35:56;;;;;;;4.60;3.28;;;15.20;99.90;;;;;;5010410;28;20030;-53
2023/08/07 04:38:42;;;;;;;5.65;3.10;;;15.20;99.90;;;;;;5009600;28;20022;-57
2023/08/07 04:41:28;;;;;;;3.30;3.00;;;15.20;99.90;;;;;;4995242;28;20030;-55
2023/08/07 04:44:14;;;;;;;5.15;3.28;;;15.10;99.90;;;;;;4995577;28;20084;-59
2023/08/07 04:47:00;;;;;;;4.90;3.50;;;15.10;99.90;;;;;;5020256;28;20033;-59
2023/08/07 04:49:46;;;;;;;4.10;3.10;;;15.30;99.90;;;;;;5029982;28;20033;-56
2023/08/07 04:52:32;;;;;;;5.45;3.35;;;15.10;99.90;;;;;;5029535;28;20051;-59
2023/08/07 04:55:17;;;;;;;4.38;3.30;;;15.20;99.90;;;;;;5029203;28;20494;-55
2023/08/07 04:58:03;;;;;;;3.55;3.22;;;15.20;99.90;;;;;;5029630;28;20061;-58
2023/08/07 05:00:56;;;;;;;5.40;3.05;;;15.30;99.90;;;;;;5027798;28;20123;-56
2023/08/07 05:03:42;;;;;;;5.90;3.35;;;15.20;99.90;;;;;;5029817;28;20032;-56
2023/08/07 05:06:28;;;;;;;3.60;3.15;;;15.10;99.90;;;;;;5029882;28;20040;-59
2023/08/07 05:09:14;;;;;;;6.45;3.33;;;15.20;99.90;;;;;;5028369;28;20030;-57
2023/08/07 05:12:00;;;;;;;5.32;3.28;;;15.20;99.90;;;;;;5030005;28;20410;-54
2023/08/07 05:14:45;;;;;;;6.55;3.30;;;15.30;99.90;;;;;;4977427;28;20462;-57
2023/08/07 05:17:32;;;;;;;5.18;3.45;;;15.20;99.90;;;;;;4989616;28;20022;-57
2023/08/07 05:20:18;;;;;;;5.68;3.80;;;15.20;99.90;;;;;;4989724;28;20039;-57
2023/08/07 05:23:04;;;;;;;9.45;4.10;;;15.20;99.90;;;;;;4988841;28;20037;-58
2023/08/07 05:25:50;;;;;;;5.95;3.88;;;15.20;99.90;;;;;;4989057;28;20503;-50
2023/08/07 05:28:36;;;;;;;6.18;3.60;;;15.30;99.90;;;;;;5002573;28;20434;-54
2023/08/07 05:31:22;;;;;;;5.63;4.25;;;15.30;99.90;;;;;;5009382;28;20094;-56
2023/08/07 05:34:08;;;;;;;6.05;3.53;;;15.20;99.90;;;;;;5025699;28;20801;-54
2023/08/07 05:36:54;;;;;;;5.78;3.92;;;15.20;99.90;;;;;;5029587;28;20529;-59
2023/08/07 05:39:40;;;;;;;5.80;3.85;;;15.20;99.90;;;;;;5015550;28;20083;-56
2023/08/07 05:42:26;;;;;;;4.90;4.03;;;15.20;99.90;;;;;;4997786;28;20096;-52
2023/08/07 05:45:12;;;;;;;8.02;4.00;;;15.30;99.90;;;;;;5010030;28;20053;-57
2023/08/07 05:47:57;;;;;;;7.15;3.92;;;15.20;99.90;;;;;;5010121;28;20033;-56
2023/08/07 05:50:43;;;;;;;5.47;3.72;;;15.30;99.90;;;;;;5010831;28;20026;-57
2023/08/07 05:53:29;;;;;;;8.93;4.10;;;15.30;99.90;;;;;;4994882;28;20022;-58
2023/08/07 05:56:16;;;;;;;5.95;4.35;;;15.20;99.90;;;;;;5018481;28;20040;-57
2023/08/07 05:59:02;;;;;;;8.38;4.15;;;15.30;99.90;;;;;;5029277;28;20025;-55
2023/08/07 06:01:48;;;;;;;8.60;3.97;;;15.20;99.90;;;;;;5014550;28;20061;-58
2023/08/07 06:04:34;;;;;;;6.40;4.15;;;15.40;99.90;;;;;;5028705;28;20033;-55
2023/08/07 06:07:20;;;;;;;5.93;3.65;;;15.30;99.90;;;;;;5022314;28;20068;-55
2023/08/07 06:10:07;;;;;;;4.82;3.80;;;15.40;99.90;;;;;;5008517;28;20026;-53
2023/08/07 06:12:53;;;;;;;5.55;3.40;;;15.50;99.90;;;;;;5009709;28;20101;-57
2023/08/07 06:15:39;;;;;;;5.65;3.72;;;15.60;99.90;;;;;;5011052;28;20041;-55
2023/08/07 06:18:25;;;;;;;6.65;4.00;;;15.50;99.90;;;;;;4994694;28;20773;-57
2023/08/07 06:21:11;;;;;;;5.28;3.75;;;15.60;99.90;;;;;;5009959;28;20041;-58
2023/08/07 06:23:57;;;;;;;4.07;3.38;;;15.70;99.90;;;;;;5012707;28;20041;-50
2023/08/07 06:26:43;;;;;;;5.00;3.47;;;15.70;99.90;;;;;;5008425;28;20118;-56
2023/08/07 06:29:29;;;;;;;5.53;3.42;;;15.80;99.90;;;;;;5011818;28;20026;-49
2023/08/07 06:32:16;;;;;;;5.63;3.13;;;15.80;99.90;;;;;;5014055;28;20482;-53
2023/08/07 06:35:04;;;;;;;6.30;3.03;;;15.90;99.90;;;;;;5016473;28;20026;-52
2023/08/07 06:37:50;;;;;;;4.10;3.20;;;15.90;99.90;;;;;;5011558;28;20490;-63
2023/08/07 06:40:36;;;;;;;5.00;3.10;;;16.00;99.90;;;;;;5012635;28;20108;-47
2023/08/07 06:43:22;;;;;;;4.88;3.17;;;15.90;99.90;;;;;;5010660;28;20046;-51
2023/08/07 06:46:08;;;;;;;4.03;3.28;;;16.00;99.90;;;;;;5007803;28;20036;-53
2023/08/07 06:48:54;;;;;;;3.90;3.05;;;16.00;99.90;;;;;;5011717;28;20042;-49
2023/08/07 06:51:40;;;;;;;5.00;2.90;;;16.00;99.90;;;;;;5010364;28;20022;-50
2023/08/07 06:54:26;;;;;;;3.78;2.63;;;16.00;99.90;;;;;;5003860;28;20490;-53
2023/08/07 06:57:11;;;;;;;2.90;2.50;;;16.20;99.90;;;;;;5010816;28;20442;-50
2023/08/07 06:59:57;;;;;;;2.88;2.60;;;16.10;99.90;;;;;;5013239;28;20049;-53
2023/08/07 07:02:43;;;;;;;3.92;3.10;;;16.10;99.90;;;;;;5001324;28;20042;-54
2023/08/07 07:05:31;;;;;;;4.10;3.40;;;16.20;99.90;;;;;;5007599;28;20117;-54
2023/08/07 07:08:17;;;;;;;6.88;2.50;;;16.20;99.90;;;;;;5022571;28;20026;-53
2023/08/07 07:11:04;;;;;;;2.90;2.40;;;16.30;99.90;;;;;;5012059;28;20044;-48
2023/08/07 07:13:51;;;;;;;4.97;2.60;;;16.30;99.90;;;;;;5010106;28;20092;-51
2023/08/07 07:16:37;;;;;;;3.55;2.40;;;16.20;99.90;;;;;;5009639;28;20034;-49
2023/08/07 07:19:23;;;;;;;3.33;2.72;;;16.40;99.90;;;;;;5010649;28;20037;-52
2023/08/07 07:22:09;;;;;;;6.07;2.50;;;16.50;99.90;;;;;;5013761;28;20100;-47
2023/08/07 07:24:55;;;;;;;3.28;2.30;;;16.40;99.90;;;;;;5010501;28;20772;-51
2023/08/07 07:27:41;;;;;;;3.47;2.60;;;16.40;99.90;;;;;;4997958;28;20033;-57
2023/08/07 07:30:27;;;;;;;3.80;2.40;;;16.50;99.90;;;;;;5007524;28;20403;-49
2023/08/07 07:33:13;;;;;;;3.53;2.70;;;16.60;99.90;;;;;;5009947;28;20049;-49
2023/08/07 07:36:01;;;;;;;2.42;2.22;;;16.60;99.90;;;;;;5008449;28;20101;-55
2023/08/07 07:38:47;;;;;;;6.53;2.55;;;16.70;99.90;;;;;;4993692;28;20034;-53
2023/08/07 07:41:33;;;;;;;4.90;2.30;;;16.60;99.90;;;;;;5007117;28;20018;-56
2023/08/07 07:44:19;;;;;;;3.63;2.30;;;16.40;99.90;;;;;;5010620;28;20042;-50
2023/08/07 07:47:05;;;;;;;2.50;2.30;;;16.40;99.90;;;;;;5011156;28;20021;-48
2023/08/07 07:50:08;;;;;;;3.13;2.47;;;16.60;99.90;;;;;;5011149;28;20061;-47
2023/08/07 07:52:53;;;;;;;3.15;2.33;;;16.70;99.90;;;;;;4996959;28;20452;-49
2023/08/07 07:55:39;;;;;;;2.58;2.38;;;16.80;99.90;;;;;;4999255;28;20039;-53
2023/08/07 07:58:25;;;;;;;2.95;2.50;;;16.80;99.90;;;;;;5004152;28;20022;-52
2023/08/07 08:01:11;;;;;;;3.15;2.42;;;16.70;99.90;;;;;;5005339;28;20025;-54
2023/08/07 08:03:57;;;;;;;3.83;2.40;;;16.80;99.90;;;;;;5007908;28;20041;-55
2023/08/07 08:06:43;;;;;;;5.53;2.45;;;16.70;99.90;;;;;;5006474;28;20038;-54
2023/08/07 08:09:29;;;;;;;3.88;2.63;;;16.80;99.90;;;;;;5007969;28;20110;-49
2023/08/07 08:12:15;;;;;;;3.10;2.30;;;16.90;99.90;;;;;;5008772;28;20117;-47
2023/08/07 08:15:02;;;;;;;4.25;2.70;;;17.00;99.90;;;;;;4991544;28;20053;-50
2023/08/07 08:17:48;;;;;;;3.38;2.67;;;17.20;99.90;;;;;;4994372;28;20042;-52
2023/08/07 08:20:34;;;;;;;3.15;2.63;;;17.20;99.90;;;;;;5009426;28;20072;-52
2023/08/07 08:23:20;;;;;;;3.25;2.50;;;17.10;99.90;;;;;;5001403;28;20076;-55
2023/08/07 08:26:06;;;;;;;2.90;2.47;;;17.20;99.90;;;;;;5015323;28;20064;-52
2023/08/07 08:28:52;;;;;;;2.90;2.60;;;17.20;99.90;;;;;;5022884;28;20029;-51
2023/08/07 08:31:38;;;;;;;4.63;2.72;;;17.30;99.90;;;;;;5029685;28;20038;-51
2023/08/07 08:34:26;;;;;;;2.90;2.60;;;17.30;99.90;;;;;;5026622;28;20053;-47
2023/08/07 08:37:12;;;;;;;2.55;2.22;;;17.20;99.90;;;;;;5001453;28;20026;-52
2023/08/07 08:39:58;;;;;;;6.97;3.15;;;17.20;99.90;;;;;;5006484;28;20030;-53
2023/08/07 08:42:45;;;;;;;2.90;2.60;;;17.20;99.90;;;;;;4997260;28;20498;-49
2023/08/07 08:45:37;;;;;;;5.15;2.70;;;17.20;99.90;;;;;;5012732;28;20548;-52
2023/08/07 08:48:24;;;;;;;5.32;2.97;;;17.10;99.90;;;;;;5017109;28;20056;-54
2023/08/07 08:51:12;;;;;;;4.82;2.60;;;17.30;99.90;;;;;;5013578;28;20474;-50
2023/08/07 08:53:59;;;;;;;3.80;2.80;;;17.30;99.90;;;;;;5022226;28;20030;-50
2023/08/07 08:56:45;;;;;;;3.08;2.67;;;17.00;99.90;;;;;;5011750;28;20398;-48
2023/08/07 08:59:32;;;;;;;4.53;2.78;;;17.10;99.90;;;;;;5011137;28;20330;-53
2023/08/07 09:02:18;;;;;;;3.00;2.70;;;17.20;99.90;;;;;;5029763;28;20033;-51
2023/08/07 09:05:05;;;;;;;3.63;2.47;;;17.40;99.90;;;;;;5023074;28;20034;-51
2023/08/07 09:07:51;;;;;;;2.42;2.20;;;17.60;99.90;;;;;;5006380;28;20037;-49
2023/08/07 09:10:37;;;;;;;7.10;2.90;;;17.70;99.90;;;;;;5019930;28;20092;-50
2023/08/07 09:13:24;;;;;;;4.78;3.10;;;17.80;99.90;;;;;;5021943;28;20018;-51
2023/08/07 09:16:11;;;;;;;3.50;2.65;;;17.80;99.90;;;;;;4990961;28;20030;-52
2023/08/07 09:18:57;;;;;;;7.57;3.00;;;17.90;99.90;;;;;;4996890;28;20447;-50
2023/08/07 09:21:43;;;;;;;3.67;2.50;;;18.10;99.90;;;;;;5011244;28;20037;-47
2023/08/07 09:24:29;;;;;;;3.42;2.38;;;18.20;99.90;;;;;;5011045;28;20056;-50
2023/08/07 09:27:15;;;;;;;2.63;2.42;;;18.10;99.90;;;;;;4995793;28;20034;-54
2023/08/07 09:30:01;;;;;;;2.85;2.13;;;17.90;99.90;;;;;;5010854;28;20030;-47
2023/08/07 09:32:48;;;;;;;4.63;2.67;;;17.60;99.90;;;;;;5010938;28;20502;-50
2023/08/07 09:35:34;;;;;;;4.22;2.65;;;17.10;99.90;;;;;;5021211;28;20025;-54
2023/08/07 09:38:22;;;;;;;3.95;2.90;;;16.80;99.90;;;;;;5006191;28;20038;-52
2023/08/07 09:41:08;;;;;;;5.15;2.90;;;16.40;99.90;;;;;;5022474;28;20659;-52
2023/08/07 09:43:55;;;;;;;5.28;3.50;;;16.40;99.90;;;;;;5010360;28;20038;-55
2023/08/07 09:46:44;;;;;;;4.80;3.20;;;16.10;99.90;;;;;;5010806;28;20099;-59
2023/08/07 09:49:33;;;;;;;4.80;3.35;;;16.10;99.90;;;;;;5010579;28;20037;-58
2023/08/07 09:52:19;;;;;;;4.15;3.10;;;16.10;99.90;;;;;;5009676;28;20034;-60
2023/08/07 09:55:05;;;;;;;4.38;3.10;;;16.00;99.90;;;;;;4998337;28;20038;-57
2023/08/07 09:57:52;;;;;;;5.13;3.13;;;16.20;99.90;;;;;;5020103;28;20061;-58
2023/08/07 10:00:40;;;;;;;4.25;3.35;;;16.20;99.90;;;;;;5012577;28;20118;-50
2023/08/07 10:03:27;;;;;;;7.05;3.10;;;16.30;99.90;;;;;;5021690;28;20505;-51
2023/08/07 10:06:14;;;;;;;3.63;3.08;;;16.30;99.90;;;;;;5005101;28;20030;-52
2023/08/07 10:09:01;;;;;;;3.53;2.72;;;16.30;99.90;;;;;;4998202;28;20034;-53
2023/08/07 10:11:49;;;;;;;3.75;2.80;;;16.50;99.90;;;;;;5001241;28;20034;-52
2023/08/07 10:14:35;;;;;;;3.10;2.65;;;16.70;99.90;;;;;;5020552;28;20120;-53
2023/08/07 10:17:22;;;;;;;3.92;2.60;;;16.90;99.90;;;;;;5013184;28;20036;-52
2023/08/07 10:20:09;;;;;;;3.45;2.90;;;17.00;99.90;;;;;;5010711;28;20032;-51
2023/08/07 10:23:06;;;;;;;5.32;3.05;;;17.20;99.90;;;;;;5003835;28;20030;-52
2023/08/07 10:25:53;;;;;;;3.60;2.78;;;17.40;99.90;;;;;;5012206;28;20026;-51
2023/08/07 10:28:41;;;;;;;5.32;2.80;;;17.70;99.90;;;;;;5013508;28;20026;-47
2023/08/07 10:31:28;;;;;;;4.13;2.60;;;17.70;99.90;;;;;;5012103;28;20030;-49
2023/08/07 10:34:16;;;;;;;5.25;2.50;;;17.50;99.90;;;;;;5027600;28;20038;-54
2023/08/07 10:37:01;;;;;;;2.75;2.30;;;17.40;99.90;;;;;;5013299;28;20033;-49
2023/08/07 10:40:04;;;;;;;3.42;2.83;;;17.30;99.90;;;;;;4999217;28;20109;-50
2023/08/07 10:42:58;;;;;;;4.68;2.67;;;17.50;99.90;;;;;;5012082;28;20586;-46
2023/08/07 10:45:43;;;;;;;4.15;2.70;;;17.60;99.90;;;;;;4991741;28;20120;-50
2023/08/07 10:48:30;;;;;;;3.83;2.92;;;17.60;99.90;;;;;;5000930;28;20029;-53
2023/08/07 10:51:17;;;;;;;3.25;2.85;;;17.70;99.90;;;;;;4997631;28;20030;-55
2023/08/07 10:54:03;;;;;;;3.95;2.67;;;17.80;99.90;;;;;;4992770;28;20440;-52
2023/08/07 10:56:54;;;;;;;2.58;2.25;;;18.00;99.90;;;;;;5003356;28;20113;-51
2023/08/07 10:59:55;;;;;;;3.60;2.38;;;18.10;99.90;;;;;;5003423;28;20042;-51
2023/08/07 11:02:42;;;;;;;4.88;2.25;;;18.40;99.90;;;;;;5001548;28;20029;-51
2023/08/07 11:05:28;;;;;;;3.38;2.38;;;18.50;99.90;;;;;;5027457;28;20033;-51
2023/08/07 11:08:14;;;;;;;3.78;2.13;;;18.40;99.90;;;;;;5013897;28;20417;-56
2023/08/07 11:11:05;;;;;;;3.25;2.40;;;18.50;99.90;;;;;;5006405;28;20490;-55
2023/08/07 11:13:50;;;;;;;2.70;2.15;;;18.60;99.90;;;;;;5011704;28;20128;-47
2023/08/07 11:16:37;;;;;;;4.07;2.40;;;18.60;99.90;;;;;;5015351;28;20018;-55
2023/08/07 11:19:23;;;;;;;4.97;2.40;;;18.70;99.90;;;;;;5019392;28;20490;-50
2023/08/07 11:22:09;;;;;;;4.78;2.15;;;18.80;99.90;;;;;;5012338;28;20053;-49
2023/08/07 11:24:55;;;;;;;3.35;2.58;;;18.90;99.90;;;;;;5013313;28;20030;-51
2023/08/07 11:27:43;;;;;;;3.95;2.55;;;18.80;99.90;;;;;;5026189;28;20033;-50
2023/08/07 11:30:29;;;;;;;5.05;2.75;;;18.90;99.90;;;;;;5018718;28;20022;-48
2023/08/07 11:33:15;;;;;;;2.72;2.53;;;19.00;99.90;;;;;;5032661;28;20060;-53
2023/08/07 11:36:01;;;;;;;3.72;2.55;;;18.90;99.90;;;;;;5021861;28;20129;-52
2023/08/07 11:38:47;;;;;;;4.00;2.33;;;18.70;99.90;;;;;;5014698;28;20026;-52
2023/08/07 11:41:33;;;;;;;3.65;2.80;;;18.50;99.90;;;;;;5012954;28;20018;-48
2023/08/07 11:44:19;;;;;;;2.40;2.20;;;18.50;99.90;;;;;;5000321;28;20173;-48
2023/08/07 11:47:06;;;;;;;4.25;2.70;;;18.30;99.90;;;;;;5012224;28;20030;-49
2023/08/07 11:49:53;;;;;;;4.82;2.20;;;18.40;99.90;;;;;;4999186;28;20376;-51
2023/08/07 11:52:40;;;;;;;4.30;2.58;;;18.50;99.90;;;;;;5011712;28;20376;-53
2023/08/07 11:55:28;;;;;;;3.20;2.40;;;18.30;99.90;;;;;;5012288;28;20042;-49
2023/08/07 11:58:13;;;;;;;3.83;2.45;;;18.20;99.90;;;;;;5010722;28;20041;-48
2023/08/07 12:01:04;;;;;;;6.07;2.40;;;18.10;99.90;;;;;;5012427;28;20025;-49
2023/08/07 12:04:07;;;;;;;3.97;2.92;;;18.20;99.90;;;;;;5012016;28;20064;-49
2023/08/07 12:06:55;;;;;;;3.70;2.55;;;18.20;99.90;;;;;;5010815;28;20486;-50
2023/08/07 12:09:41;;;;;;;2.60;2.20;;;18.40;99.90;;;;;;5013162;28;20061;-54
2023/08/07 12:12:27;;;;;;;3.90;2.08;;;18.50;99.90;;;;;;5012989;28;20022;-53
2023/08/07 12:15:16;;;;;;;4.78;2.25;;;18.30;99.90;;;;;;5014504;28;20030;-54
2023/08/07 12:18:02;;;;;;;4.63;2.38;;;18.20;99.90;;;;;;5012397;28;20087;-50
2023/08/07 12:20:52;;;;;;;5.70;2.72;;;17.90;99.90;;;;;;5012280;28;20040;-49
2023/08/07 12:23:38;;;;;;;4.57;3.30;;;17.50;99.90;;;;;;5012543;28;20026;-56
2023/08/07 12:26:24;;;;;;;11.10;3.47;;;16.50;99.90;;;;;;5011633;28;20084;-57
2023/08/07 12:29:10;;;;;;;5.65;3.20;;;16.10;99.90;;;;;;5012566;28;20513;-52
2023/08/07 12:31:59;;;;;;;6.45;3.50;;;16.30;99.90;;;;;;5012583;28;20034;-56
2023/08/07 12:34:45;;;;;;;3.63;2.80;;;16.40;99.90;;;;;;5012509;28;20096;-58
2023/08/07 12:37:30;;;;;;;3.80;2.67;;;16.60;99.90;;;;;;5011927;28;20079;-53
2023/08/07 12:40:20;;;;;;;4.07;3.08;;;17.00;99.90;;;;;;5012657;28;20026;-52
2023/08/07 12:43:07;;;;;;;3.58;2.50;;;17.30;99.90;;;;;;5011429;28;20042;-54
2023/08/07 12:45:53;;;;;;;5.20;3.03;;;17.40;99.90;;;;;;5011836;28;20113;-51
2023/08/07 12:48:39;;;;;;;4.57;2.80;;;17.60;99.90;;;;;;5011443;28;20026;-52
2023/08/07 12:51:25;;;;;;;3.80;2.75;;;17.30;99.90;;;;;;5011768;28;20072;-57
2023/08/07 12:54:11;;;;;;;7.00;3.22;;;17.40;99.90;;;;;;5011365;28;20033;-54
2023/08/07 12:56:57;;;;;;;4.68;2.70;;;17.50;99.90;;;;;;5011410;28;20399;-60
2023/08/07 12:59:43;;;;;;;4.85;2.90;;;16.90;99.90;;;;;;4997201;28;20044;-57
2023/08/07 13:02:29;;;;;;;3.97;2.28;;;16.40;99.90;;;;;;5012547;28;20061;-56
2023/08/07 13:05:19;;;;;;;3.55;2.28;;;16.40;99.90;;;;;;5011217;28;20061;-55
2023/08/07 13:08:04;;;;;;;3.50;2.45;;;16.50;99.90;;;;;;5011188;28;20030;-56
2023/08/07 13:10:50;;;;;;;2.55;2.20;;;16.70;99.90;;;;;;5011812;28;20026;-55
2023/08/07 13:13:38;;;;;;;4.45;2.20;;;16.90;99.90;;;;;;5011192;28;20044;-47
2023/08/07 13:16:24;;;;;;;3.58;2.40;;;16.80;99.90;;;;;;5010987;28;20247;-51
2023/08/07 13:19:10;;;;;;;4.13;2.45;;;17.00;99.90;;;;;;5011716;28;20061;-58
2023/08/07 13:21:56;;;;;;;5.07;2.50;;;17.10;99.90;;;;;;5012283;28;20037;-53
2023/08/07 13:24:42;;;;;;;3.85;2.30;;;17.10;99.90;;;;;;5011812;28;20029;-51
2023/08/07 13:27:27;;;;;;;3.22;2.47;;;17.20;99.90;;;;;;5012163;28;20102;-53
2023/08/07 13:30:13;;;;;;;2.78;2.13;;;17.70;99.90;;;;;;5010967;28;20579;-56
2023/08/07 13:33:00;;;;;;;4.93;2.40;;;18.20;99.90;;;;;;4982572;28;20634;-49
2023/08/07 13:35:46;;;;;;;4.15;2.28;;;18.40;99.90;;;;;;4982054;28;20038;-52
2023/08/07 13:38:31;;;;;;;3.38;2.13;;;18.60;99.90;;;;;;4995942;28;20117;-54
2023/08/07 13:41:17;;;;;;;3.55;2.70;;;18.50;99.90;;;;;;4995926;28;20027;-52
2023/08/07 13:44:04;;;;;;;4.90;2.47;;;18.20;99.90;;;;;;4995228;28;20031;-47
2023/08/07 13:46:49;;;;;;;2.80;1.80;;;18.10;99.90;;;;;;4994623;28;20018;-51
2023/08/07 13:49:35;;;;;;;3.45;2.25;;;17.70;99.90;;;;;;4995718;28;20023;-48
2023/08/07 13:52:22;;;;;;;2.55;1.90;;;17.20;99.90;;;;;;4994991;28;20112;-54
2023/08/07 13:55:09;;;;;;;3.17;2.20;;;16.60;99.90;;;;;;4981233;28;20031;-53
2023/08/07 13:57:55;;;;;;;2.25;1.88;;;16.50;99.90;;;;;;4980954;28;20061;-58
2023/08/07 14:00:41;;;;;;;2.00;1.80;;;16.50;99.90;;;;;;4996162;28;20152;-54
2023/08/07 14:03:27;;;;;;;4.53;2.10;;;16.60;99.90;;;;;;4994837;28;20034;-54
2023/08/07 14:06:13;;;;;;;5.00;2.30;;;16.60;99.90;;;;;;4994716;28;20022;-51
2023/08/07 14:08:59;;;;;;;3.47;1.98;;;16.70;99.90;;;;;;4981106;28;20435;-53
2023/08/07 14:11:45;;;;;;;3.58;2.40;;;16.70;99.90;;;;;;4994497;28;20162;-54
2023/08/07 14:14:31;;;;;;;4.55;2.28;;;16.80;99.90;;;;;;4994842;28;20026;-56
2023/08/07 14:17:17;;;;;;;3.03;2.30;;;16.80;99.90;;;;;;5005308;28;20030;-56
2023/08/07 14:20:04;;;;;;;3.55;2.58;;;17.10;99.90;;;;;;5011837;28;20038;-56
2023/08/07 14:22:50;;;;;;;3.95;2.25;;;17.70;99.90;;;;;;5001599;28;20029;-49
2023/08/07 14:25:36;;;;;;;3.88;2.40;;;18.30;99.90;;;;;;5011821;28;20032;-55